createdAt,value
2019-05-23T00:04:19.083Z,99980.97
2019-05-23T00:09:43.356Z,99980.89
2019-05-23T00:14:53.453Z,99977.52
2019-05-23T00:20:01.238Z,99977.79
2019-05-23T00:25:10.512Z,99988.50
2019-05-23T00:30:23.856Z,99984.61
2019-05-23T00:35:32.078Z,99991.98
2019-05-23T00:40:39.506Z,99992.93
2019-05-23T00:45:45.488Z,99998.86
2019-05-23T00:50:53.128Z,100007.98
2019-05-23T00:56:00.516Z,100011.36
2019-05-23T01:01:07.419Z,100007.90
2019-05-23T01:06:14.384Z,100011.86
2019-05-23T01:11:21.664Z,100019.78
2019-05-23T01:16:31.418Z,100013.45
2019-05-23T01:21:57.459Z,100006.95
2019-05-23T01:27:04.992Z,100009.05
2019-05-23T01:32:13.131Z,100012.97
2019-05-23T01:37:21.207Z,100011.80
2019-05-23T01:42:28.714Z,100022.36
2019-05-23T01:47:35.866Z,100017.59
2019-05-23T01:52:42.489Z,100021.20
2019-05-23T01:57:49.496Z,100027.28
2019-05-23T02:02:56.286Z,100031.13
2019-05-23T02:08:03.126Z,100030.30
2019-05-23T02:13:09.144Z,100037.50
2019-05-23T02:18:15.544Z,100043.14
2019-05-23T02:23:22.830Z,100047.33
2019-05-23T02:28:30.438Z,100057.48
2019-05-23T02:33:37.005Z,100064.27
2019-05-23T02:38:49.653Z,100061.75
2019-05-23T02:43:59.011Z,100064.97
2019-05-23T02:49:09.593Z,100067.70
2019-05-23T02:54:18.421Z,100073.17
2019-05-23T02:59:38.125Z,100075.78
2019-05-23T03:04:46.336Z,100075.38
2019-05-23T03:09:52.519Z,100071.42
2019-05-23T03:14:59.502Z,100059.78
2019-05-23T03:20:09.159Z,100074.25
2019-05-23T03:25:39.441Z,100075.39
2019-05-23T03:30:49.892Z,100077.13
2019-05-23T03:35:58.337Z,100075.98
2019-05-23T03:41:05.914Z,100068.61
2019-05-23T03:46:16.391Z,100081.55
2019-05-23T03:51:22.260Z,100081.78
2019-05-23T03:56:30.276Z,100077.63
2019-05-23T04:01:47.755Z,100080.72
2019-05-23T04:06:43.874Z,100083.73
2019-05-23T04:11:50.265Z,100087.30
2019-05-23T04:16:57.747Z,100088.16
2019-05-23T04:22:03.818Z,100091.46
2019-05-23T04:27:11.019Z,100094.14
2019-05-23T04:32:17.937Z,100093.95
2019-05-23T04:37:24.088Z,100095.51
2019-05-23T04:42:31.014Z,100096.16
2019-05-23T04:47:38.599Z,100111.17
2019-05-23T04:52:45.132Z,100119.84
2019-05-23T04:57:52.515Z,100130.39
2019-05-23T05:02:58.476Z,100131.17
2019-05-23T05:08:05.298Z,100129.30
2019-05-23T05:13:11.616Z,100128.16
2019-05-23T05:18:17.933Z,100135.44
2019-05-23T05:23:23.992Z,100158.06
2019-05-23T05:28:29.976Z,100164.20
2019-05-23T05:33:36.135Z,100158.47
2019-05-23T05:38:42.904Z,100161.08
2019-05-23T05:43:49.280Z,100164.69
2019-05-23T05:48:56.064Z,100172.30
2019-05-23T05:54:02.192Z,100174.48
2019-05-23T06:03:53.410Z,100184.16
2019-05-23T06:09:03.803Z,100188.81
2019-05-23T06:14:10.565Z,100197.41
2019-05-23T06:19:17.761Z,100194.88
2019-05-23T06:24:42.379Z,100189.47
2019-05-23T06:29:32.371Z,100205.84
2019-05-23T06:34:39.629Z,100209.14
2019-05-23T06:39:45.549Z,100211.13
2019-05-23T06:44:51.869Z,100214.88
2019-05-23T06:49:58.237Z,100222.60
2019-05-23T06:55:05.809Z,100219.83
2019-05-23T07:00:14.237Z,100224.53
2019-05-23T07:05:25.518Z,100236.97
2019-05-23T07:10:31.800Z,100240.63
2019-05-23T07:15:38.016Z,100245.15
2019-05-23T07:20:44.817Z,100244.88
2019-05-23T07:25:51.360Z,100239.63
2019-05-23T07:30:57.946Z,100237.69
2019-05-23T07:36:04.438Z,100246.02
2019-05-23T07:41:11.015Z,100244.72
2019-05-23T07:46:17.808Z,100253.48
2019-05-23T07:51:23.876Z,100250.17
2019-05-23T07:56:31.944Z,100259.35
2019-05-23T08:01:39.317Z,100272.24
2019-05-23T08:06:48.795Z,100274.24
2019-05-23T08:11:53.187Z,100283.17
2019-05-23T08:16:59.667Z,100284.37
2019-05-23T08:22:06.480Z,100290.25
2019-05-23T08:27:13.154Z,100289.25
2019-05-23T08:32:19.556Z,100296.51
2019-05-23T08:37:25.708Z,100311.92
2019-05-23T08:42:32.171Z,100304.77
2019-05-23T08:47:39.181Z,100310.41
2019-05-23T08:52:45.621Z,100307.92
2019-05-23T08:57:52.436Z,100320.53
2019-05-23T09:02:59.383Z,100320.19
2019-05-23T09:08:07.161Z,100314.73
2019-05-23T09:13:13.957Z,100312.30
2019-05-23T09:18:20.126Z,100319.54
2019-05-23T09:23:26.925Z,100312.60
2019-05-23T09:28:33.394Z,100307.41
2019-05-23T09:33:41.235Z,100312.81
2019-05-23T09:38:47.782Z,100309.66
2019-05-23T09:43:54.488Z,100318.81
2019-05-23T09:49:00.461Z,100328.09
2019-05-23T09:54:06.883Z,100326.94
2019-05-23T09:59:13.519Z,100331.63
2019-05-23T10:04:19.496Z,100330.51
2019-05-23T10:09:25.577Z,100328.91
2019-05-23T10:14:33.226Z,100329.41
2019-05-23T10:19:41.145Z,100339.41
2019-05-23T10:24:47.587Z,100336.61
2019-05-23T10:29:53.954Z,100340.34
2019-05-23T10:35:00.249Z,100344.41
2019-05-23T10:40:07.165Z,100343.96
2019-05-23T10:45:15.457Z,100346.52
2019-05-23T10:50:21.978Z,100351.92
2019-05-23T10:55:28.533Z,100352.80
2019-05-23T11:00:36.265Z,100348.19
2019-05-23T11:05:42.301Z,100355.58
2019-05-23T11:10:49.720Z,100355.91
2019-05-23T11:15:56.911Z,100353.17
2019-05-23T11:21:02.881Z,100351.49
2019-05-23T11:26:09.726Z,100353.89
2019-05-23T11:31:16.949Z,100355.60
2019-05-23T11:36:35.516Z,100357.82
2019-05-23T11:41:33.166Z,100354.03
2019-05-23T11:46:40.126Z,100351.05
2019-05-23T11:51:46.394Z,100352.70
2019-05-23T11:56:52.723Z,100353.13
2019-05-23T12:02:09.807Z,100352.18
2019-05-23T12:07:20.277Z,100350.43
2019-05-23T12:12:26.859Z,100351.80
2019-05-23T12:17:33.847Z,100345.95
2019-05-23T12:22:40.354Z,100348.77
2019-05-23T12:27:47.039Z,100350.50
2019-05-23T12:32:53.194Z,100343.31
2019-05-23T12:38:02.423Z,100337.39
2019-05-23T12:43:07.188Z,100338.48
2019-05-23T12:48:31.189Z,100341.29
2019-05-23T12:53:38.272Z,100348.11
2019-05-23T12:58:45.481Z,100350.89
2019-05-23T13:03:51.457Z,100343.58
2019-05-23T13:08:57.724Z,100354.14
2019-05-23T13:14:04.063Z,100355.08
2019-05-23T13:19:10.288Z,100360.55
2019-05-23T13:24:16.562Z,100362.92
2019-05-23T13:29:24.559Z,100360.18
2019-05-23T13:34:30.757Z,100364.39
2019-05-23T13:39:36.891Z,100374.95
2019-05-23T13:44:42.909Z,100373.70
2019-05-23T13:49:49.077Z,100372.05
2019-05-23T13:54:55.312Z,100377.36
2019-05-23T14:00:01.662Z,100380.95
2019-05-23T14:05:09.484Z,100383.45
2019-05-23T14:10:16.558Z,100384.34
2019-05-23T14:15:24.366Z,100381.12
2019-05-23T14:20:30.199Z,100388.55
2019-05-23T14:25:36.929Z,100386.34
2019-05-23T14:30:45.507Z,100391.50
2019-05-23T14:35:53.076Z,100382.16
2019-05-23T14:40:59.897Z,100376.49
2019-05-23T14:46:07.981Z,100372.45
2019-05-23T14:51:29.785Z,100378.75
2019-05-23T14:56:40.494Z,100370.41
2019-05-23T15:01:47.090Z,100374.31
2019-05-23T15:06:53.162Z,100372.05
2019-05-23T15:11:59.428Z,100377.02
2019-05-23T15:17:05.981Z,100375.89
2019-05-23T15:22:12.394Z,100387.17
2019-05-23T15:27:18.668Z,100393.58
2019-05-23T15:32:25.125Z,100392.29
2019-05-23T15:37:31.222Z,100404.08
2019-05-23T15:42:37.295Z,100417.30
2019-05-23T15:47:43.622Z,100412.53
2019-05-23T15:52:53.947Z,100423.03
2019-05-23T15:58:02.637Z,100430.56
2019-05-23T16:03:13.812Z,100426.30
2019-05-23T16:08:18.944Z,100420.52
2019-05-23T16:13:26.264Z,100420.66
2019-05-23T16:18:33.330Z,100413.33
2019-05-23T16:23:41.049Z,100411.89
2019-05-23T16:28:47.020Z,100412.30
2019-05-23T16:33:55.208Z,100406.00
2019-05-23T16:39:01.611Z,100409.91
2019-05-23T16:44:08.277Z,100415.90
2019-05-23T16:49:15.118Z,100422.41
2019-05-23T16:54:22.783Z,100427.34
2019-05-23T16:59:39.534Z,100437.48
2019-05-23T17:04:47.114Z,100444.91
2019-05-23T17:10:11.247Z,100450.03
2019-05-23T17:15:25.422Z,100457.95
2019-05-23T17:20:33.856Z,100465.03
2019-05-23T17:25:57.510Z,100466.84
2019-05-23T17:31:05.340Z,100463.06
2019-05-23T17:36:11.727Z,100464.33
2019-05-23T17:41:19.213Z,100475.83
2019-05-23T17:46:25.422Z,100478.30
2019-05-23T17:51:32.106Z,100481.45
2019-05-23T17:56:38.452Z,100484.25
2019-05-23T18:01:45.362Z,100483.52
2019-05-23T18:06:51.802Z,100476.41
2019-05-23T18:11:58.370Z,100470.28
2019-05-23T18:17:04.688Z,100464.89
2019-05-23T18:22:12.916Z,100458.55
2019-05-23T18:27:19.196Z,100449.89
2019-05-23T18:32:27.446Z,100442.61
2019-05-23T18:37:33.763Z,100453.95
2019-05-23T18:42:41.304Z,100460.75
2019-05-23T18:47:48.118Z,100455.97
2019-05-23T18:52:54.313Z,100459.41
2019-05-23T18:58:00.556Z,100458.81
2019-05-23T19:03:06.631Z,100468.06
2019-05-23T19:08:12.647Z,100471.10
2019-05-23T19:13:19.384Z,100478.86
2019-05-23T19:18:26.358Z,100474.16
2019-05-23T19:23:32.756Z,100478.14
2019-05-23T19:28:39.652Z,100474.91
2019-05-23T19:33:46.148Z,100476.56
2019-05-23T19:38:52.135Z,100476.85
2019-05-23T19:43:58.106Z,100478.83
2019-05-23T19:49:04.405Z,100482.14
2019-05-23T19:54:10.741Z,100486.81
2019-05-23T19:59:20.803Z,100480.14
2019-05-23T20:04:31.124Z,100480.52
2019-05-23T20:09:35.636Z,100484.55
2019-05-23T20:14:41.791Z,100482.55
2019-05-23T20:19:50.375Z,100493.65
2019-05-23T20:24:55.564Z,100474.02
2019-05-23T20:30:01.548Z,100473.90
2019-05-23T20:35:08.247Z,100464.41
2019-05-23T20:40:14.507Z,100466.73
2019-05-23T20:45:20.678Z,100459.25
2019-05-23T20:50:26.767Z,100449.41
2019-05-23T20:55:32.779Z,100459.25
2019-05-23T21:00:44.019Z,100472.62
2019-05-23T21:05:49.886Z,100466.16
2019-05-23T21:10:55.874Z,100442.47
2019-05-23T21:16:01.834Z,100469.69
2019-05-23T21:21:07.709Z,100477.37
2019-05-23T21:26:13.870Z,100483.01
2019-05-23T21:31:21.477Z,100493.48
2019-05-23T21:36:27.557Z,100492.77
2019-05-23T21:41:33.421Z,100492.81
2019-05-23T21:46:39.392Z,100498.54
2019-05-23T21:51:45.262Z,100494.47
2019-05-23T21:56:51.030Z,100495.67
2019-05-23T22:01:58.531Z,100484.45
2019-05-23T22:07:04.616Z,100482.08
2019-05-23T22:12:12.734Z,100480.06
2019-05-23T22:17:20.343Z,100485.92
2019-05-23T22:22:26.410Z,100478.55
2019-05-23T22:27:32.380Z,100466.78
2019-05-23T22:32:38.356Z,100469.86
2019-05-23T22:37:44.934Z,100467.59
2019-05-23T22:42:50.916Z,100465.23
2019-05-23T22:47:56.982Z,100465.52
2019-05-23T22:53:02.953Z,100462.16
2019-05-23T22:58:10.154Z,100452.45
2019-05-23T23:03:16.225Z,100451.75
2019-05-23T23:08:23.178Z,100457.50
2019-05-23T23:13:38.096Z,100466.56
2019-05-23T23:18:36.805Z,100468.08
2019-05-23T23:23:42.673Z,100471.98
2019-05-23T23:28:48.946Z,100469.64
2019-05-23T23:33:55.023Z,100469.59
2019-05-23T23:39:01.199Z,100466.77
2019-05-23T23:44:08.884Z,100464.98
2019-05-23T23:49:32.183Z,100461.47
2019-05-23T23:54:56.073Z,100459.79
